Time;durP1;ratioP1;P1;durP2;ratioP2;P2;SDS_P1;SDS_P2;PMS_P1;PMS_P2;Temp;Humidity;BMP_temperature;BMP_pressure;BME280_temperature;BME280_humidity;BME280_pressure;Samples;Min_cycle;Max_cycle;Signal;HPM_P1;HPM_P2
2023/05/05 00:01:18;;;;;;;;;1.50;1.00;;;;;;;;5014324;28;45654;-71
2023/05/05 00:03:43;;;;;;;;;0.75;0.75;;;;;;;;5014274;28;45591;-71
2023/05/05 00:06:08;;;;;;;;;0.00;0.00;;;;;;;;5013801;28;45458;-71
2023/05/05 00:08:33;;;;;;;;;0.00;0.00;;;;;;;;5012492;28;45408;-71
2023/05/05 00:10:59;;;;;;;;;0.00;0.00;;;;;;;;5012855;28;46281;-71
2023/05/05 00:13:24;;;;;;;;;1.00;1.00;;;;;;;;5014104;28;45412;-71
2023/05/05 00:15:50;;;;;;;;;0.00;0.00;;;;;;;;5021546;28;45595;-71
2023/05/05 00:18:16;;;;;;;;;0.50;0.50;;;;;;;;5032345;28;45422;-71
2023/05/05 00:20:42;;;;;;;;;0.25;0.25;;;;;;;;5032623;28;46487;-72
2023/05/05 00:23:07;;;;;;;;;0.00;0.00;;;;;;;;5033745;28;45905;-71
2023/05/05 00:25:33;;;;;;;;;2.75;0.00;;;;;;;;5033147;28;45386;-71
2023/05/05 00:27:58;;;;;;;;;0.25;0.25;;;;;;;;5034213;28;45422;-71
2023/05/05 00:30:23;;;;;;;;;2.00;1.00;;;;;;;;5033716;28;46190;-71
2023/05/05 00:32:49;;;;;;;;;0.00;0.00;;;;;;;;5032462;28;46206;-72
2023/05/05 00:35:15;;;;;;;;;0.75;0.75;;;;;;;;5033671;28;45510;-71
2023/05/05 00:37:40;;;;;;;;;0.75;0.75;;;;;;;;5033375;28;45519;-72
2023/05/05 00:40:06;;;;;;;;;0.25;0.00;;;;;;;;5033213;28;45749;-72
2023/05/05 00:42:42;;;;;;;;;0.00;0.00;;;;;;;;5027544;28;45496;-71
2023/05/05 00:45:08;;;;;;;;;0.00;0.00;;;;;;;;5013897;28;45403;-71
2023/05/05 00:47:33;;;;;;;;;0.75;0.75;;;;;;;;5013635;28;45419;-73
2023/05/05 00:49:58;;;;;;;;;0.00;0.00;;;;;;;;5012909;28;45537;-70
2023/05/05 00:52:23;;;;;;;;;0.50;0.50;;;;;;;;5013728;28;45574;-70
2023/05/05 00:54:49;;;;;;;;;0.00;0.00;;;;;;;;5013148;28;45392;-71
2023/05/05 00:57:14;;;;;;;;;0.50;0.00;;;;;;;;5013574;28;45343;-71
2023/05/05 00:59:39;;;;;;;;;1.00;0.75;;;;;;;;5019716;28;46685;-71
2023/05/05 01:02:05;;;;;;;;;0.75;0.75;;;;;;;;5033514;28;45389;-71
2023/05/05 01:04:30;;;;;;;;;1.00;0.00;;;;;;;;5032973;28;45371;-71
2023/05/05 01:06:55;;;;;;;;;1.00;0.75;;;;;;;;5033248;28;45599;-71
2023/05/05 01:09:30;;;;;;;;;0.75;0.75;;;;;;;;5032434;28;48522;-71
2023/05/05 01:12:13;;;;;;;;;1.00;1.00;;;;;;;;5036555;28;45330;-71
2023/05/05 01:14:40;;;;;;;;;0.75;0.75;;;;;;;;5025802;28;45193;-71
2023/05/05 01:17:11;;;;;;;;;1.00;1.00;;;;;;;;5016591;28;45553;-71
2023/05/05 01:19:43;;;;;;;;;0.00;0.00;;;;;;;;5017835;28;45356;-71
2023/05/05 01:22:10;;;;;;;;;2.00;1.00;;;;;;;;5017165;28;45456;-71
2023/05/05 01:24:55;;;;;;;;;1.00;0.00;;;;;;;;5017643;28;45446;-71
2023/05/05 01:27:44;;;;;;;;;2.75;0.00;;;;;;;;5017764;28;45541;-71
2023/05/05 01:30:17;;;;;;;;;1.00;0.75;;;;;;;;5017550;28;45481;-71
2023/05/05 01:33:02;;;;;;;;;1.00;1.00;;;;;;;;5017419;28;45339;-70
2023/05/05 01:35:30;;;;;;;;;0.75;0.75;;;;;;;;5017618;28;45388;-71
2023/05/05 01:38:06;;;;;;;;;1.00;0.75;;;;;;;;5017471;28;45519;-71
2023/05/05 01:40:36;;;;;;;;;0.00;0.00;;;;;;;;5017267;28;45339;-71
2023/05/05 01:43:02;;;;;;;;;2.75;1.75;;;;;;;;5017390;28;45313;-71
2023/05/05 01:45:30;;;;;;;;;0.75;0.25;;;;;;;;5015993;28;45459;-71
2023/05/05 01:47:56;;;;;;;;;2.75;0.00;;;;;;;;5017824;28;45327;-71
2023/05/05 01:50:21;;;;;;;;;1.50;0.25;;;;;;;;5015687;28;47031;-71
2023/05/05 01:52:48;;;;;;;;;0.00;0.00;;;;;;;;5016961;28;45411;-71
2023/05/05 01:55:16;;;;;;;;;1.75;0.75;;;;;;;;5017072;28;45358;-71
2023/05/05 01:57:43;;;;;;;;;0.25;0.25;;;;;;;;5017236;28;45415;-71
2023/05/05 02:00:10;;;;;;;;;1.75;0.75;;;;;;;;5016955;28;45398;-70
2023/05/05 02:02:36;;;;;;;;;1.75;0.75;;;;;;;;5017086;28;45382;-70
2023/05/05 02:05:02;;;;;;;;;1.00;1.00;;;;;;;;5017053;28;45455;-70
2023/05/05 02:07:29;;;;;;;;;1.00;1.00;;;;;;;;5016524;28;45349;-70
2023/05/05 02:09:54;;;;;;;;;0.75;0.75;;;;;;;;5016998;28;46343;-71
2023/05/05 02:12:20;;;;;;;;;0.75;0.75;;;;;;;;5016859;28;45388;-71
2023/05/05 02:14:46;;;;;;;;;0.50;0.25;;;;;;;;5016815;28;45402;-71
2023/05/05 02:17:13;;;;;;;;;1.00;0.75;;;;;;;;5016986;28;45347;-71
2023/05/05 02:19:40;;;;;;;;;0.75;0.75;;;;;;;;5024205;28;45643;-71
2023/05/05 02:22:06;;;;;;;;;1.75;0.75;;;;;;;;5036451;28;45353;-71
2023/05/05 02:24:31;;;;;;;;;0.00;0.00;;;;;;;;5035716;28;45357;-70
2023/05/05 02:26:57;;;;;;;;;4.25;1.25;;;;;;;;5036647;28;45432;-70
2023/05/05 02:29:27;;;;;;;;;1.00;1.00;;;;;;;;5036592;28;46511;-71
2023/05/05 02:31:54;;;;;;;;;1.75;1.00;;;;;;;;5027205;28;45407;-70
2023/05/05 02:34:30;;;;;;;;;1.00;1.00;;;;;;;;5016353;28;45397;-71
2023/05/05 02:36:57;;;;;;;;;1.25;1.25;;;;;;;;5016427;28;45303;-71
2023/05/05 02:39:44;;;;;;;;;1.25;0.75;;;;;;;;5016195;28;47506;-71
2023/05/05 02:42:12;;;;;;;;;0.25;0.25;;;;;;;;5016512;28;45592;-70
2023/05/05 02:44:40;;;;;;;;;1.75;0.50;;;;;;;;5016495;28;45473;-70
2023/05/05 02:47:05;;;;;;;;;1.00;1.00;;;;;;;;5016395;28;45336;-70
2023/05/05 02:49:30;;;;;;;;;2.25;1.00;;;;;;;;5016437;28;45316;-70
2023/05/05 02:51:56;;;;;;;;;0.75;0.75;;;;;;;;5016171;28;45407;-70
2023/05/05 02:54:22;;;;;;;;;1.50;1.00;;;;;;;;5016539;28;45426;-70
2023/05/05 02:56:50;;;;;;;;;2.25;2.00;;;;;;;;5016471;28;45349;-70
2023/05/05 02:59:31;;;;;;;;;0.75;0.75;;;;;;;;5016261;28;45824;-70
2023/05/05 03:02:05;;;;;;;;;1.00;1.00;;;;;;;;5016289;28;45466;-70
2023/05/05 03:04:37;;;;;;;;;3.25;1.00;;;;;;;;5015951;28;45375;-70
2023/05/05 03:07:05;;;;;;;;;1.00;1.00;;;;;;;;5015973;28;45536;-70
2023/05/05 03:09:40;;;;;;;;;3.00;2.00;;;;;;;;5014748;28;45360;-70
2023/05/05 03:12:07;;;;;;;;;1.25;1.25;;;;;;;;5015863;28;45328;-70
2023/05/05 03:14:42;;;;;;;;;2.00;1.25;;;;;;;;5014716;28;45397;-70
2023/05/05 03:17:11;;;;;;;;;0.75;0.75;;;;;;;;5034144;28;45352;-70
2023/05/05 03:19:38;;;;;;;;;2.75;1.75;;;;;;;;5035453;28;46446;-70
2023/05/05 03:22:03;;;;;;;;;0.50;0.50;;;;;;;;5034087;28;45485;-70
2023/05/05 03:24:29;;;;;;;;;3.00;2.00;;;;;;;;5035735;28;45837;-70
2023/05/05 03:26:54;;;;;;;;;2.00;1.00;;;;;;;;5035369;28;45476;-70
2023/05/05 03:29:19;;;;;;;;;2.00;2.00;;;;;;;;5034532;28;48513;-71
2023/05/05 03:31:44;;;;;;;;;0.50;0.00;;;;;;;;5035867;28;45327;-70
2023/05/05 03:34:10;;;;;;;;;1.50;1.50;;;;;;;;5034522;28;45313;-70
2023/05/05 03:36:35;;;;;;;;;1.00;1.00;;;;;;;;5035745;28;45473;-71
2023/05/05 03:39:00;;;;;;;;;0.00;0.00;;;;;;;;5035757;28;46396;-70
2023/05/05 03:41:26;;;;;;;;;1.75;0.00;;;;;;;;5035539;28;45380;-70
2023/05/05 03:43:51;;;;;;;;;3.25;0.75;;;;;;;;5018788;28;45303;-71
2023/05/05 03:46:16;;;;;;;;;1.00;1.00;;;;;;;;5015440;28;45904;-70
2023/05/05 03:48:42;;;;;;;;;1.25;1.25;;;;;;;;5015220;28;46467;-71
2023/05/05 03:51:07;;;;;;;;;3.25;1.00;;;;;;;;5015242;28;45351;-70
2023/05/05 03:53:33;;;;;;;;;2.00;1.00;;;;;;;;5015731;28;45503;-70
2023/05/05 03:55:58;;;;;;;;;2.00;0.50;;;;;;;;5013887;28;45281;-71
2023/05/05 03:58:23;;;;;;;;;2.50;1.25;;;;;;;;5015091;28;45442;-70
2023/05/05 04:00:48;;;;;;;;;0.00;0.00;;;;;;;;5015044;28;45363;-70
2023/05/05 04:03:13;;;;;;;;;0.50;0.50;;;;;;;;5015074;28;45383;-70
2023/05/05 04:05:39;;;;;;;;;3.25;1.50;;;;;;;;5015249;28;45595;-70
2023/05/05 04:08:04;;;;;;;;;1.00;1.00;;;;;;;;5015204;28;45693;-71
2023/05/05 04:10:29;;;;;;;;;0.00;0.00;;;;;;;;5015433;28;45432;-71
2023/05/05 04:12:55;;;;;;;;;1.75;1.00;;;;;;;;5015413;28;45481;-71
2023/05/05 04:15:20;;;;;;;;;2.50;2.00;;;;;;;;5019962;28;45474;-71
2023/05/05 04:17:45;;;;;;;;;2.00;1.00;;;;;;;;5034680;28;45436;-71
2023/05/05 04:20:11;;;;;;;;;1.00;1.00;;;;;;;;5035208;28;45449;-71
2023/05/05 04:22:36;;;;;;;;;0.50;0.50;;;;;;;;5035152;28;45434;-71
2023/05/05 04:25:01;;;;;;;;;1.50;0.50;;;;;;;;5035143;28;45419;-71
2023/05/05 04:27:28;;;;;;;;;1.00;1.00;;;;;;;;5034710;28;45413;-72
2023/05/05 04:29:54;;;;;;;;;1.00;1.00;;;;;;;;5034899;28;45448;-72
2023/05/05 04:32:19;;;;;;;;;1.50;1.50;;;;;;;;5034776;28;45410;-72
2023/05/05 04:34:45;;;;;;;;;1.25;1.00;;;;;;;;5035098;28;45463;-71
2023/05/05 04:37:10;;;;;;;;;0.25;0.25;;;;;;;;5035018;28;45603;-72
2023/05/05 04:39:35;;;;;;;;;2.50;1.00;;;;;;;;5035100;28;45463;-71
2023/05/05 04:42:01;;;;;;;;;0.75;0.75;;;;;;;;5032736;28;45387;-71
2023/05/05 04:44:26;;;;;;;;;2.50;1.00;;;;;;;;5014071;28;45308;-71
2023/05/05 04:46:52;;;;;;;;;3.00;1.00;;;;;;;;5018153;28;46341;-71
2023/05/05 04:49:17;;;;;;;;;6.00;1.00;;;;;;;;5018428;28;45265;-71
2023/05/05 04:51:42;;;;;;;;;3.50;2.00;;;;;;;;5018322;28;45551;-71
2023/05/05 04:54:07;;;;;;;;;2.75;2.00;;;;;;;;5018219;28;45320;-71
2023/05/05 04:56:32;;;;;;;;;2.00;2.00;;;;;;;;5017944;28;47242;-71
2023/05/05 04:58:58;;;;;;;;;2.00;2.00;;;;;;;;5018282;28;45318;-71
2023/05/05 05:01:23;;;;;;;;;3.25;2.00;;;;;;;;5018232;28;45348;-71
2023/05/05 05:03:48;;;;;;;;;1.00;1.00;;;;;;;;5018019;28;45346;-71
2023/05/05 05:06:13;;;;;;;;;2.00;1.00;;;;;;;;5017806;28;45414;-71
2023/05/05 05:08:38;;;;;;;;;3.75;1.50;;;;;;;;5018106;28;45371;-71
2023/05/05 05:11:04;;;;;;;;;2.50;2.50;;;;;;;;5018247;28;45254;-71
2023/05/05 05:13:29;;;;;;;;;1.75;1.75;;;;;;;;5017967;28;45434;-70
2023/05/05 05:15:54;;;;;;;;;3.00;3.00;;;;;;;;5017576;28;45333;-70
2023/05/05 05:18:19;;;;;;;;;2.00;2.00;;;;;;;;5017851;28;45426;-70
2023/05/05 05:20:45;;;;;;;;;2.50;1.50;;;;;;;;5034092;28;45372;-70
2023/05/05 05:23:10;;;;;;;;;1.75;1.50;;;;;;;;5036531;28;45407;-70
2023/05/05 05:25:35;;;;;;;;;1.75;1.75;;;;;;;;5037634;28;46629;-70
2023/05/05 05:28:00;;;;;;;;;1.75;1.75;;;;;;;;5037887;28;45337;-70
2023/05/05 05:30:26;;;;;;;;;1.00;1.00;;;;;;;;5037691;28;45429;-70
2023/05/05 05:32:51;;;;;;;;;2.50;2.00;;;;;;;;5037704;28;45285;-70
2023/05/05 05:35:16;;;;;;;;;1.25;1.25;;;;;;;;5037677;28;45418;-70
2023/05/05 05:37:42;;;;;;;;;2.25;1.00;;;;;;;;5037546;28;45505;-70
2023/05/05 05:40:07;;;;;;;;;1.00;1.00;;;;;;;;5037284;28;45352;-70
2023/05/05 05:42:32;;;;;;;;;4.25;2.00;;;;;;;;5031159;28;45366;-71
2023/05/05 05:44:57;;;;;;;;;2.75;1.00;;;;;;;;5015801;28;48499;-71
2023/05/05 05:47:23;;;;;;;;;2.25;2.00;;;;;;;;5016029;28;45331;-71
2023/05/05 05:49:48;;;;;;;;;3.75;2.00;;;;;;;;5017926;28;45297;-71
2023/05/05 05:52:13;;;;;;;;;3.50;2.25;;;;;;;;5017321;28;45335;-70
2023/05/05 05:54:38;;;;;;;;;3.50;3.00;;;;;;;;5017462;28;46070;-70
2023/05/05 05:57:05;;;;;;;;;3.00;2.00;;;;;;;;5016634;28;45362;-70
2023/05/05 05:59:30;;;;;;;;;2.25;1.00;;;;;;;;5017240;28;45268;-70
2023/05/05 06:01:56;;;;;;;;;5.00;3.50;;;;;;;;5017522;28;45297;-70
2023/05/05 06:04:21;;;;;;;;;3.00;2.00;;;;;;;;5017100;28;46221;-70
2023/05/05 06:06:46;;;;;;;;;3.00;3.00;;;;;;;;5017420;28;45865;-70
2023/05/05 06:09:11;;;;;;;;;3.50;2.00;;;;;;;;5017600;28;45388;-71
2023/05/05 06:11:37;;;;;;;;;3.25;1.25;;;;;;;;5016986;28;45358;-71
2023/05/05 06:14:02;;;;;;;;;2.75;2.75;;;;;;;;5016740;28;45339;-71
2023/05/05 06:16:27;;;;;;;;;2.50;1.25;;;;;;;;5015510;28;45368;-71
2023/05/05 06:18:52;;;;;;;;;1.50;1.50;;;;;;;;5017506;28;45464;-71
2023/05/05 06:21:19;;;;;;;;;3.75;2.00;;;;;;;;5017269;28;45381;-71
2023/05/05 06:23:44;;;;;;;;;1.75;1.75;;;;;;;;5024880;28;45492;-71
2023/05/05 06:26:09;;;;;;;;;1.00;1.00;;;;;;;;5035382;28;45475;-71
2023/05/05 06:28:35;;;;;;;;;2.25;2.00;;;;;;;;5037038;28;45746;-71
2023/05/05 06:31:00;;;;;;;;;1.00;1.00;;;;;;;;5036599;28;45558;-71
2023/05/05 06:33:25;;;;;;;;;0.50;0.50;;;;;;;;5036570;28;46257;-71
2023/05/05 06:35:51;;;;;;;;;2.00;1.00;;;;;;;;5027340;28;45434;-70
2023/05/05 06:38:16;;;;;;;;;1.25;1.25;;;;;;;;5016673;28;45456;-71
2023/05/05 06:40:41;;;;;;;;;1.00;1.00;;;;;;;;5016733;28;45390;-71
2023/05/05 06:43:07;;;;;;;;;2.25;2.00;;;;;;;;5016420;28;47312;-71
2023/05/05 06:45:32;;;;;;;;;2.50;2.00;;;;;;;;5016701;28;45452;-71
2023/05/05 06:47:57;;;;;;;;;1.75;0.75;;;;;;;;5015219;28;45373;-71
2023/05/05 06:50:22;;;;;;;;;2.00;2.00;;;;;;;;5016742;28;45375;-70
2023/05/05 06:52:48;;;;;;;;;1.00;1.00;;;;;;;;5016494;28;45450;-71
2023/05/05 06:55:13;;;;;;;;;0.75;0.00;;;;;;;;5016652;28;45445;-70
2023/05/05 06:57:38;;;;;;;;;2.00;1.00;;;;;;;;5016128;28;45425;-71
2023/05/05 07:00:04;;;;;;;;;2.00;1.00;;;;;;;;5016416;28;45356;-70
2023/05/05 07:02:30;;;;;;;;;3.75;3.00;;;;;;;;5016497;28;45409;-71
2023/05/05 07:04:55;;;;;;;;;1.00;1.00;;;;;;;;5015869;28;45247;-71
2023/05/05 07:07:20;;;;;;;;;3.00;1.25;;;;;;;;5015947;28;45380;-71
2023/05/05 07:09:46;;;;;;;;;1.00;1.00;;;;;;;;5014396;28;45573;-71
2023/05/05 07:12:11;;;;;;;;;1.25;1.25;;;;;;;;5015780;28;45481;-71
2023/05/05 07:14:36;;;;;;;;;0.50;0.50;;;;;;;;5015051;28;45593;-71
2023/05/05 07:17:01;;;;;;;;;4.25;0.75;;;;;;;;5016217;28;45391;-71
2023/05/05 07:19:26;;;;;;;;;2.00;2.00;;;;;;;;5016301;28;45349;-71
2023/05/05 07:21:52;;;;;;;;;1.50;1.50;;;;;;;;5016132;28;46691;-71
2023/05/05 07:24:17;;;;;;;;;3.00;2.00;;;;;;;;5029411;28;45413;-72
2023/05/05 07:26:42;;;;;;;;;2.00;1.25;;;;;;;;5036008;28;45314;-71
2023/05/05 07:29:08;;;;;;;;;1.00;1.00;;;;;;;;5036021;28;45270;-72
2023/05/05 07:31:33;;;;;;;;;1.50;1.25;;;;;;;;5036021;28;45445;-71
2023/05/05 07:33:58;;;;;;;;;2.00;2.00;;;;;;;;5036064;28;45407;-72
2023/05/05 07:36:23;;;;;;;;;2.00;2.00;;;;;;;;5035752;28;45452;-72
2023/05/05 07:38:48;;;;;;;;;1.25;0.75;;;;;;;;5035937;28;45323;-72
2023/05/05 07:41:14;;;;;;;;;3.00;3.00;;;;;;;;5035285;28;46825;-71
2023/05/05 07:43:42;;;;;;;;;1.00;1.00;;;;;;;;5020509;28;45348;-72
2023/05/05 07:46:07;;;;;;;;;2.75;2.75;;;;;;;;5015807;28;45331;-72
2023/05/05 07:48:32;;;;;;;;;1.00;1.00;;;;;;;;5014388;28;45333;-72
2023/05/05 07:50:58;;;;;;;;;2.25;2.25;;;;;;;;5015583;28;45412;-73
2023/05/05 07:53:23;;;;;;;;;1.50;1.50;;;;;;;;5016929;28;45331;-73
2023/05/05 07:55:48;;;;;;;;;0.75;0.75;;;;;;;;5019913;28;45360;-73
2023/05/05 07:58:13;;;;;;;;;1.50;1.50;;;;;;;;5017269;28;45397;-72
2023/05/05 08:00:39;;;;;;;;;1.00;1.00;;;;;;;;5016833;28;45479;-72
2023/05/05 08:03:04;;;;;;;;;1.00;1.00;;;;;;;;5022543;28;45275;-72
2023/05/05 08:05:29;;;;;;;;;4.75;1.75;;;;;;;;5028708;28;44841;-72
2023/05/05 08:07:54;;;;;;;;;1.25;1.25;;;;;;;;5029498;28;45212;-72
2023/05/05 08:10:21;;;;;;;;;2.50;1.50;;;;;;;;5024398;28;46725;-73
2023/05/05 08:12:46;;;;;;;;;1.00;1.00;;;;;;;;5015318;28;45411;-72
2023/05/05 08:15:11;;;;;;;;;1.00;0.75;;;;;;;;5015167;28;45255;-72
2023/05/05 08:17:47;;;;;;;;;2.75;0.75;;;;;;;;5014010;28;45903;-72
2023/05/05 08:20:12;;;;;;;;;1.25;0.75;;;;;;;;5014821;28;46191;-72
2023/05/05 08:22:38;;;;;;;;;0.00;0.00;;;;;;;;5015337;28;45466;-72
2023/05/05 08:25:03;;;;;;;;;2.25;0.00;;;;;;;;5034826;28;45324;-72
2023/05/05 08:27:28;;;;;;;;;1.00;1.00;;;;;;;;5035387;28;45320;-72
2023/05/05 08:29:53;;;;;;;;;0.00;0.00;;;;;;;;5034968;28;46152;-71
2023/05/05 08:32:19;;;;;;;;;0.00;0.00;;;;;;;;5033952;28;45194;-72
2023/05/05 08:34:44;;;;;;;;;1.25;1.25;;;;;;;;5033561;28;45391;-71
2023/05/05 08:37:10;;;;;;;;;1.50;0.00;;;;;;;;5034835;28;45467;-72
2023/05/05 08:39:36;;;;;;;;;0.50;0.50;;;;;;;;5034643;28;45400;-71
2023/05/05 08:42:02;;;;;;;;;2.00;1.00;;;;;;;;5032517;28;45333;-72
2023/05/05 08:44:27;;;;;;;;;2.00;1.00;;;;;;;;5014989;28;45304;-73
2023/05/05 08:46:53;;;;;;;;;0.00;0.00;;;;;;;;5015102;28;45352;-72
2023/05/05 08:49:19;;;;;;;;;1.00;0.75;;;;;;;;5014838;28;45300;-72
2023/05/05 08:51:44;;;;;;;;;1.00;0.00;;;;;;;;5013421;28;45317;-72
2023/05/05 08:54:14;;;;;;;;;0.00;0.00;;;;;;;;5013360;28;45321;-73
2023/05/05 08:56:40;;;;;;;;;1.00;0.00;;;;;;;;5014839;28;45385;-71
2023/05/05 08:59:07;;;;;;;;;0.00;0.00;;;;;;;;5014796;28;46088;-73
2023/05/05 09:01:33;;;;;;;;;0.00;0.00;;;;;;;;5013437;28;45499;-73
2023/05/05 09:03:59;;;;;;;;;0.50;0.50;;;;;;;;5014852;28;45359;-73
2023/05/05 09:06:26;;;;;;;;;1.00;1.00;;;;;;;;5014682;28;45486;-72
2023/05/05 09:08:52;;;;;;;;;0.00;0.00;;;;;;;;5014878;28;46496;-73
2023/05/05 09:11:17;;;;;;;;;0.75;0.00;;;;;;;;5014505;28;45383;-72
2023/05/05 09:13:42;;;;;;;;;0.75;0.00;;;;;;;;5014721;28;45355;-74
2023/05/05 09:16:08;;;;;;;;;0.67;0.00;;;;;;;;5013475;28;45319;-73
2023/05/05 09:18:35;;;;;;;;;0.00;0.00;;;;;;;;5014803;28;45349;-73
2023/05/05 09:21:17;;;;;;;;;0.00;0.00;;;;;;;;5016676;28;45465;-74
2023/05/05 09:24:02;;;;;;;;;2.00;0.50;;;;;;;;5014918;28;45281;-72
2023/05/05 09:26:29;;;;;;;;;0.00;0.00;;;;;;;;5019265;28;45637;-73
2023/05/05 09:28:54;;;;;;;;;0.00;0.00;;;;;;;;5034248;28;45617;-72
2023/05/05 09:31:20;;;;;;;;;0.00;0.00;;;;;;;;5034678;28;45327;-72
2023/05/05 09:33:45;;;;;;;;;0.00;0.00;;;;;;;;5038227;28;45308;-73
2023/05/05 09:36:11;;;;;;;;;0.00;0.00;;;;;;;;5037483;28;45527;-73
2023/05/05 09:38:36;;;;;;;;;0.00;0.00;;;;;;;;5036607;28;48019;-73
2023/05/05 09:41:01;;;;;;;;;1.00;0.00;;;;;;;;5037648;28;45543;-73
2023/05/05 09:43:26;;;;;;;;;1.33;0.00;;;;;;;;5023876;28;45317;-72
2023/05/05 09:46:03;;;;;;;;;0.00;0.00;;;;;;;;5018026;28;45407;-72
2023/05/05 09:48:30;;;;;;;;;0.00;0.00;;;;;;;;5017832;28;45375;-73
2023/05/05 09:50:55;;;;;;;;;1.00;0.00;;;;;;;;5017174;28;45513;-73
2023/05/05 09:53:21;;;;;;;;;1.00;0.00;;;;;;;;5017821;28;45313;-73
2023/05/05 09:55:56;;;;;;;;;0.00;0.00;;;;;;;;5017867;28;45364;-73
2023/05/05 09:58:26;;;;;;;;;0.33;0.33;;;;;;;;5016229;28;47766;-72
2023/05/05 10:00:52;;;;;;;;;1.00;0.00;;;;;;;;5016200;28;46133;-72
2023/05/05 10:03:17;;;;;;;;;0.00;0.00;;;;;;;;5017831;28;45651;-72
2023/05/05 10:05:46;;;;;;;;;0.00;0.00;;;;;;;;5017263;28;45477;-71
2023/05/05 10:08:14;;;;;;;;;0.00;0.00;;;;;;;;5017326;28;47721;-71
2023/05/05 10:10:45;;;;;;;;;2.00;0.00;;;;;;;;5017657;28;45565;-72
2023/05/05 10:13:10;;;;;;;;;0.00;0.00;;;;;;;;5017554;28;45319;-72
2023/05/05 10:15:36;;;;;;;;;0.00;0.00;;;;;;;;5017194;28;45495;-72
2023/05/05 10:18:02;;;;;;;;;0.00;0.00;;;;;;;;5017412;28;45599;-72
2023/05/05 10:20:30;;;;;;;;;0.00;0.00;;;;;;;;5015600;28;46237;-73
2023/05/05 10:22:56;;;;;;;;;0.00;0.00;;;;;;;;5016187;28;45495;-72
2023/05/05 10:25:29;;;;;;;;;0.00;0.00;;;;;;;;5017016;28;45366;-72
2023/05/05 10:27:58;;;;;;;;;0.00;0.00;;;;;;;;5027412;28;45913;-72
2023/05/05 10:30:28;;;;;;;;;0.00;0.00;;;;;;;;5036867;28;45386;-72
2023/05/05 10:32:57;;;;;;;;;0.00;0.00;;;;;;;;5037331;28;45444;-72
2023/05/05 10:35:23;;;;;;;;;0.00;0.00;;;;;;;;5035135;28;45490;-72
2023/05/05 10:37:48;;;;;;;;;0.00;0.00;;;;;;;;5037153;28;46375;-72
2023/05/05 10:40:14;;;;;;;;;1.00;0.00;;;;;;;;5036608;28;45454;-72
2023/05/05 10:42:39;;;;;;;;;0.00;0.00;;;;;;;;5029710;28;45513;-72
2023/05/05 10:45:05;;;;;;;;;0.00;0.00;;;;;;;;5017036;28;45605;-72
2023/05/05 10:47:31;;;;;;;;;0.00;0.00;;;;;;;;5016690;28;46258;-72
2023/05/05 10:49:57;;;;;;;;;0.00;0.00;;;;;;;;5015456;28;45412;-71
2023/05/05 10:52:33;;;;;;;;;0.00;0.00;;;;;;;;5016697;28;45429;-72
2023/05/05 10:55:06;;;;;;;;;0.00;0.00;;;;;;;;5017205;28;45368;-72
2023/05/05 10:57:35;;;;;;;;;0.00;0.00;;;;;;;;5016705;28;46050;-72
2023/05/05 11:00:01;;;;;;;;;0.00;0.00;;;;;;;;5016598;28;45457;-72
2023/05/05 11:02:27;;;;;;;;;1.00;0.00;;;;;;;;5016960;28;45389;-71
2023/05/05 11:05:04;;;;;;;;;0.00;0.00;;;;;;;;5016772;28;45391;-72
2023/05/05 11:07:30;;;;;;;;;0.00;0.00;;;;;;;;5017364;28;46609;-72
2023/05/05 11:10:03;;;;;;;;;0.00;0.00;;;;;;;;5020275;28;45476;-72
2023/05/05 11:12:28;;;;;;;;;0.00;0.00;;;;;;;;5020820;28;44787;-72
2023/05/05 11:15:13;;;;;;;;;0.00;0.00;;;;;;;;5019864;28;45388;-73
2023/05/05 11:17:47;;;;;;;;;0.00;0.00;;;;;;;;5037814;28;45324;-73
2023/05/05 11:20:12;;;;;;;;;0.00;0.00;;;;;;;;5040277;28;45459;-72
2023/05/05 11:22:56;;;;;;;;;0.75;0.00;;;;;;;;5041198;28;45354;-72
2023/05/05 11:25:33;;;;;;;;;0.00;0.00;;;;;;;;5042564;28;45315;-72
2023/05/05 11:28:08;;;;;;;;;2.00;0.00;;;;;;;;5041653;28;47430;-72
2023/05/05 11:30:34;;;;;;;;;0.00;0.00;;;;;;;;5042780;28;45426;-73
2023/05/05 11:33:23;;;;;;;;;0.00;0.00;;;;;;;;5038863;28;45421;-72
2023/05/05 11:36:12;;;;;;;;;0.00;0.00;;;;;;;;5029794;28;45747;-73
2023/05/05 11:38:56;;;;;;;;;0.00;0.00;;;;;;;;5034084;28;45623;-73
2023/05/05 11:41:33;;;;;;;;;0.00;0.00;;;;;;;;5040792;28;45452;-73
2023/05/05 11:44:11;;;;;;;;;0.00;0.00;;;;;;;;5023294;28;45491;-72
2023/05/05 11:47:00;;;;;;;;;0.00;0.00;;;;;;;;5016098;28;45574;-72
2023/05/05 11:49:25;;;;;;;;;0.00;0.00;;;;;;;;5015654;28;47172;-73
2023/05/05 11:52:00;;;;;;;;;0.50;0.00;;;;;;;;5015859;28;45464;-71
2023/05/05 11:54:26;;;;;;;;;0.00;0.00;;;;;;;;5015128;28;45442;-72
2023/05/05 11:57:00;;;;;;;;;1.25;0.00;;;;;;;;5014204;28;45459;-72
2023/05/05 11:59:26;;;;;;;;;1.00;1.00;;;;;;;;5015717;28;45649;-72
2023/05/05 12:01:51;;;;;;;;;3.00;1.25;;;;;;;;5015362;28;45404;-72
2023/05/05 12:04:16;;;;;;;;;0.00;0.00;;;;;;;;5016040;28;45542;-71
2023/05/05 12:06:42;;;;;;;;;1.00;0.00;;;;;;;;5015713;28;45447;-72
2023/05/05 12:09:17;;;;;;;;;0.00;0.00;;;;;;;;5015602;28;46058;-72
2023/05/05 12:11:48;;;;;;;;;1.00;0.00;;;;;;;;5015415;28;45413;-72
2023/05/05 12:14:13;;;;;;;;;0.00;0.00;;;;;;;;5015419;28;45406;-72
2023/05/05 12:16:39;;;;;;;;;1.00;0.00;;;;;;;;5015369;28;45462;-73
2023/05/05 12:19:05;;;;;;;;;0.67;0.67;;;;;;;;5015009;28;47103;-72
2023/05/05 12:21:31;;;;;;;;;0.00;0.00;;;;;;;;5015554;28;45506;-72
2023/05/05 12:23:56;;;;;;;;;0.00;0.00;;;;;;;;5014302;28;45619;-72
2023/05/05 12:26:27;;;;;;;;;5.00;2.25;;;;;;;;5015435;28;45511;-72
2023/05/05 12:28:53;;;;;;;;;0.00;0.00;;;;;;;;5015516;28;45326;-73
2023/05/05 12:31:18;;;;;;;;;0.75;0.75;;;;;;;;5014843;28;45432;-72
2023/05/05 12:33:44;;;;;;;;;3.00;1.25;;;;;;;;5015299;28;45552;-72
2023/05/05 12:36:09;;;;;;;;;0.00;0.00;;;;;;;;5014912;28;45419;-74
2023/05/05 12:38:35;;;;;;;;;0.00;0.00;;;;;;;;5015490;28;46138;-73
2023/05/05 12:41:01;;;;;;;;;0.00;0.00;;;;;;;;5015191;28;45368;-73
2023/05/05 12:43:26;;;;;;;;;0.25;0.25;;;;;;;;5014050;28;45468;-73
2023/05/05 12:45:59;;;;;;;;;0.00;0.00;;;;;;;;5014850;28;45490;-73
2023/05/05 12:48:24;;;;;;;;;0.00;0.00;;;;;;;;5014642;28;46368;-73
2023/05/05 12:50:50;;;;;;;;;0.00;0.00;;;;;;;;5015332;28;45368;-73
2023/05/05 12:53:19;;;;;;;;;0.00;0.00;;;;;;;;5013922;28;45404;-73
2023/05/05 12:55:44;;;;;;;;;1.75;0.00;;;;;;;;5014973;28;45538;-73
2023/05/05 12:58:10;;;;;;;;;0.00;0.00;;;;;;;;5014861;28;46235;-73
2023/05/05 13:00:35;;;;;;;;;4.00;0.00;;;;;;;;5014818;28;45408;-73
2023/05/05 13:03:01;;;;;;;;;0.00;0.00;;;;;;;;5015287;28;45347;-73
2023/05/05 13:05:38;;;;;;;;;1.00;1.00;;;;;;;;5015109;28;45431;-72
2023/05/05 13:08:03;;;;;;;;;0.00;0.00;;;;;;;;5017434;28;47461;-72
2023/05/05 13:10:30;;;;;;;;;0.50;0.25;;;;;;;;5018824;28;45387;-72
2023/05/05 13:12:55;;;;;;;;;0.00;0.00;;;;;;;;5018346;28;45430;-72
2023/05/05 13:15:20;;;;;;;;;1.25;1.25;;;;;;;;5017917;28;45429;-73
2023/05/05 13:17:46;;;;;;;;;0.00;0.00;;;;;;;;5000185;28;48860;-72
2023/05/05 13:20:11;;;;;;;;;0.00;0.00;;;;;;;;5016698;28;45431;-73
2023/05/05 13:22:36;;;;;;;;;5.00;2.50;;;;;;;;5032795;28;45657;-72
2023/05/05 13:25:01;;;;;;;;;0.00;0.00;;;;;;;;5037837;28;45476;-72
2023/05/05 13:27:26;;;;;;;;;1.00;1.00;;;;;;;;5033693;28;47150;-73
2023/05/05 13:29:52;;;;;;;;;0.00;0.00;;;;;;;;5017943;28;45399;-73
2023/05/05 13:32:17;;;;;;;;;0.00;0.00;;;;;;;;5016434;28;45430;-71
2023/05/05 13:34:42;;;;;;;;;1.00;1.00;;;;;;;;5016866;28;45477;-72
2023/05/05 13:37:08;;;;;;;;;0.00;0.00;;;;;;;;5016589;28;45945;-72
2023/05/05 13:39:33;;;;;;;;;0.00;0.00;;;;;;;;5016316;28;45498;-73
2023/05/05 13:41:58;;;;;;;;;0.00;0.00;;;;;;;;5015687;28;45523;-72
2023/05/05 13:44:24;;;;;;;;;0.00;0.00;;;;;;;;5015911;28;45596;-72
2023/05/05 13:46:49;;;;;;;;;0.00;0.00;;;;;;;;5016773;28;47018;-72
2023/05/05 13:49:14;;;;;;;;;2.00;0.00;;;;;;;;5017415;28;45476;-73
2023/05/05 13:51:39;;;;;;;;;0.00;0.00;;;;;;;;5017983;28;45442;-71
2023/05/05 13:54:05;;;;;;;;;0.00;0.00;;;;;;;;5017664;28;45601;-73
2023/05/05 13:56:31;;;;;;;;;0.00;0.00;;;;;;;;5017447;28;45446;-71
2023/05/05 13:58:56;;;;;;;;;0.25;0.00;;;;;;;;5017038;28;45411;-72
2023/05/05 14:01:22;;;;;;;;;0.00;0.00;;;;;;;;5017538;28;45351;-72
2023/05/05 14:03:47;;;;;;;;;0.50;0.50;;;;;;;;5016480;28;45655;-72
2023/05/05 14:06:12;;;;;;;;;0.00;0.00;;;;;;;;5017245;28;47033;-72
2023/05/05 14:08:37;;;;;;;;;1.00;0.00;;;;;;;;5017457;28;45351;-73
2023/05/05 14:11:03;;;;;;;;;0.00;0.00;;;;;;;;5017170;28;45370;-72
2023/05/05 14:13:28;;;;;;;;;0.00;0.00;;;;;;;;5017279;28;45367;-72
2023/05/05 14:15:53;;;;;;;;;0.75;0.75;;;;;;;;5017440;28;45502;-72
2023/05/05 14:18:18;;;;;;;;;0.00;0.00;;;;;;;;5016923;28;45602;-72
2023/05/05 14:20:43;;;;;;;;;0.00;0.00;;;;;;;;5017418;28;45351;-73
2023/05/05 14:23:09;;;;;;;;;0.00;0.00;;;;;;;;5022314;28;45265;-71
2023/05/05 14:25:34;;;;;;;;;0.00;0.00;;;;;;;;5036909;28;45439;-72
2023/05/05 14:27:59;;;;;;;;;0.50;0.00;;;;;;;;5035824;28;45465;-72
2023/05/05 14:30:24;;;;;;;;;0.00;0.00;;;;;;;;5037315;28;45303;-72
2023/05/05 14:32:50;;;;;;;;;0.00;0.00;;;;;;;;5037456;28;45271;-72
2023/05/05 14:35:15;;;;;;;;;0.00;0.00;;;;;;;;5036854;28;45333;-72
2023/05/05 14:37:40;;;;;;;;;0.00;0.00;;;;;;;;5036946;28;45370;-72
2023/05/05 14:40:05;;;;;;;;;0.00;0.00;;;;;;;;5036806;28;45567;-72
2023/05/05 14:42:31;;;;;;;;;0.00;0.00;;;;;;;;5030557;28;45342;-73